Time;durP1;ratioP1;P1;durP2;ratioP2;P2;SDS_P1;SDS_P2;PMS_P1;PMS_P2;Temp;Humidity;BMP_temperature;BMP_pressure;BME280_temperature;BME280_humidity;BME280_pressure;Samples;Min_cycle;Max_cycle;Signal;HPM_P1;HPM_P2
2023/05/01 00:00:03;;;;;;;4.07;2.70;;;;;;;9.49;64.59;100471.72;5052041;28;20057;-59
2023/05/01 00:02:30;;;;;;;5.28;2.78;;;;;;;9.51;64.87;100465.81;5052540;28;20430;-58
2023/05/01 00:04:58;;;;;;;5.63;2.88;;;;;;;9.55;64.19;100469.63;5051905;28;20048;-59
2023/05/01 00:07:29;;;;;;;3.60;2.53;;;;;;;9.54;65.15;100466.03;5052372;28;20049;-59
2023/05/01 00:09:57;;;;;;;4.07;2.63;;;;;;;9.51;65.02;100468.59;5052193;28;20052;-58
2023/05/01 00:12:25;;;;;;;4.75;2.47;;;;;;;9.50;64.02;100455.84;5045636;28;20054;-59
2023/05/01 00:14:53;;;;;;;3.60;2.88;;;;;;;9.44;63.84;100454.28;5048458;28;20064;-59
2023/05/01 00:17:21;;;;;;;4.90;2.80;;;;;;;9.38;64.57;100452.72;5055604;28;20366;-58
2023/05/01 00:19:51;;;;;;;4.35;2.30;;;;;;;9.38;65.66;100438.84;5055646;28;20063;-59
2023/05/01 00:22:19;;;;;;;5.97;2.80;;;;;;;9.34;65.02;100444.19;5055685;28;20413;-59
2023/05/01 00:24:48;;;;;;;5.07;2.55;;;;;;;9.35;64.78;100435.53;5055236;28;20048;-59
2023/05/01 00:27:16;;;;;;;;;;;;;;;9.33;65.52;100436.97;5051220;28;20087;-59
2023/05/01 00:29:43;;;;;;;4.40;2.78;;;;;;;9.26;65.69;100423.50;5035437;28;19921;-59
2023/05/01 00:32:10;;;;;;;9.63;3.72;;;;;;;9.26;64.75;100433.75;5037614;28;20064;-59
2023/05/01 00:34:37;;;;;;;7.22;3.20;;;;;;;9.27;66.15;100427.91;5048773;28;20049;-59
2023/05/01 00:37:04;;;;;;;4.07;2.70;;;;;;;9.27;64.85;100430.69;5035086;28;20372;-59
2023/05/01 00:39:32;;;;;;;6.25;2.70;;;;;;;9.23;64.27;100421.31;5035124;28;20049;-59
2023/05/01 00:42:01;;;;;;;6.25;2.70;;;;;;;9.17;65.77;100416.97;5036126;28;20049;-59
2023/05/01 00:44:28;;;;;;;3.67;2.80;;;;;;;9.12;65.40;100411.53;5035121;28;20053;-59
2023/05/01 00:46:59;;;;;;;4.78;2.75;;;;;;;9.07;66.17;100408.81;5035105;28;20471;-59
2023/05/01 00:49:26;;;;;;;5.13;2.78;;;;;;;9.03;64.99;100410.56;5035072;28;20053;-59
2023/05/01 00:51:54;;;;;;;4.97;2.55;;;;;;;9.04;64.54;100409.44;5034939;28;20049;-58
2023/05/01 00:54:22;;;;;;;4.13;2.35;;;;;;;9.03;65.31;100403.09;5034838;28;20050;-58
2023/05/01 00:56:49;;;;;;;4.28;2.60;;;;;;;9.01;65.31;100394.22;5035652;28;20055;-59
2023/05/01 00:59:18;;;;;;;3.35;2.40;;;;;;;8.94;65.12;100402.97;5054858;28;20060;-59
2023/05/01 01:01:45;;;;;;;4.30;2.60;;;;;;;8.83;65.10;100386.78;5054689;28;20060;-58
2023/05/01 01:04:13;;;;;;;3.58;2.63;;;;;;;8.76;65.07;100398.28;5054614;28;20059;-59
2023/05/01 01:06:48;;;;;;;4.45;2.85;;;;;;;8.74;65.01;100392.19;5054590;28;20501;-58
2023/05/01 01:09:26;;;;;;;5.93;3.08;;;;;;;8.67;65.53;100388.97;5054376;28;20060;-59
2023/05/01 01:12:10;;;;;;;4.55;2.40;;;;;;;8.66;66.03;100384.56;5047361;28;20056;-59
2023/05/01 01:14:46;;;;;;;4.20;2.65;;;;;;;8.65;66.78;100371.78;5034741;28;20521;-59
2023/05/01 01:17:21;;;;;;;3.53;2.38;;;;;;;8.61;66.10;100377.16;5035193;28;20447;-59
2023/05/01 01:20:23;;;;;;;3.50;2.47;;;;;;;8.60;65.32;100374.69;5053205;28;20041;-59
2023/05/01 01:23:00;;;;;;;4.25;3.03;;;;;;;8.52;65.92;100373.41;4972804;28;20059;-59
2023/05/01 01:25:55;;;;;;;5.25;3.08;;;;;;;8.50;66.46;100367.31;5039789;28;20465;-59
2023/05/01 01:28:55;;;;;;;4.28;3.03;;;;;;;8.43;67.30;100364.94;5047066;28;20045;-59
2023/05/01 01:31:32;;;;;;;4.07;2.58;;;;;;;8.45;67.04;100361.88;5054061;28;20053;-58
2023/05/01 01:34:08;;;;;;;4.80;2.55;;;;;;;8.44;65.98;100358.28;5054325;28;20057;-59
2023/05/01 01:36:40;;;;;;;5.15;2.55;;;;;;;8.42;66.54;100362.47;5054349;28;20056;-59
2023/05/01 01:39:15;;;;;;;7.15;2.80;;;;;;;8.36;66.14;100364.50;5054497;28;20053;-59
2023/05/01 01:41:45;;;;;;;4.93;2.97;;;;;;;8.34;66.52;100352.88;5051792;28;20505;-59
2023/05/01 01:44:19;;;;;;;5.22;2.95;;;;;;;8.33;67.09;100349.25;5046621;28;20064;-59
2023/05/01 01:46:48;;;;;;;6.35;2.50;;;;;;;8.34;66.99;100353.69;5053991;28;20064;-58
2023/05/01 01:49:21;;;;;;;7.28;2.80;;;;;;;8.33;66.75;100353.97;5054031;28;20063;-59
2023/05/01 01:51:50;;;;;;;4.45;2.70;;;;;;;8.33;67.00;100342.88;5054103;28;20056;-59
2023/05/01 01:54:23;;;;;;;3.40;2.40;;;;;;;8.34;67.17;100341.75;5053877;28;20053;-59
2023/05/01 01:56:51;;;;;;;4.25;2.90;;;;;;;8.29;67.25;100337.13;5052530;28;20540;-59
2023/05/01 01:59:21;;;;;;;4.20;2.55;;;;;;;8.23;67.61;100340.25;5035290;28;20072;-59
2023/05/01 02:01:50;;;;;;;5.68;3.08;;;;;;;8.25;66.65;100332.47;5033709;28;20053;-58
2023/05/01 02:04:20;;;;;;;4.80;2.88;;;;;;;8.26;66.51;100332.16;5033520;28;20053;-59
2023/05/01 02:06:47;;;;;;;;;;;;;;;8.20;67.76;100327.00;5034162;28;20057;-58
2023/05/01 02:09:17;;;;;;;5.35;2.60;;;;;;;8.22;67.32;100324.75;5033603;28;20302;-59
2023/05/01 02:11:45;;;;;;;;;;;;;;;8.16;67.98;100320.41;5042455;28;20053;-58
2023/05/01 02:14:15;;;;;;;3.45;2.60;;;;;;;8.23;66.58;100321.69;5037282;28;19932;-59
2023/05/01 02:16:43;;;;;;;4.93;2.65;;;;;;;8.19;67.78;100319.78;5053454;28;20481;-58
2023/05/01 02:19:13;;;;;;;4.47;2.75;;;;;;;8.16;67.54;100317.63;5053159;28;20048;-59
2023/05/01 02:21:43;;;;;;;4.45;2.92;;;;;;;8.17;67.98;100313.72;5053515;28;20053;-59
2023/05/01 02:24:13;;;;;;;4.72;2.90;;;;;;;8.16;66.68;100312.09;5052888;28;20057;-58
2023/05/01 02:26:43;;;;;;;5.60;3.25;;;;;;;8.17;67.02;100311.78;5052860;28;20061;-59
2023/05/01 02:29:10;;;;;;;4.28;2.92;;;;;;;8.17;67.07;100308.19;5041435;28;20411;-59
2023/05/01 02:31:38;;;;;;;6.85;2.80;;;;;;;8.17;66.64;100306.25;5040199;28;20508;-59
2023/05/01 02:34:05;;;;;;;3.88;2.70;;;;;;;8.16;67.75;100307.34;5051269;28;20060;-58
2023/05/01 02:36:32;;;;;;;6.57;2.90;;;;;;;8.16;66.77;100303.78;5053474;28;20430;-58
2023/05/01 02:39:02;;;;;;;5.68;3.13;;;;;;;8.11;68.06;100302.72;5052630;28;20041;-59
2023/05/01 02:41:32;;;;;;;4.85;2.97;;;;;;;8.16;67.23;100299.03;5053090;28;20394;-58
2023/05/01 02:44:04;;;;;;;3.97;3.10;;;;;;;8.11;67.22;100297.16;5048061;28;20045;-58
2023/05/01 02:46:35;;;;;;;4.32;3.05;;;;;;;8.09;68.02;100288.34;5053019;28;20052;-58
2023/05/01 02:49:04;;;;;;;6.40;2.85;;;;;;;8.07;68.19;100289.75;5052902;28;20055;-58
2023/05/01 02:51:32;;;;;;;5.25;2.80;;;;;;;8.11;66.89;100282.50;5053069;28;20061;-58
2023/05/01 02:54:02;;;;;;;4.80;2.97;;;;;;;8.06;66.90;100285.31;5053479;28;20478;-58
2023/05/01 02:56:29;;;;;;;6.80;2.90;;;;;;;8.05;67.73;100275.38;5052802;28;20064;-58
2023/05/01 02:58:56;;;;;;;4.82;2.80;;;;;;;8.07;67.67;100278.66;5048990;28;20049;-58
2023/05/01 03:01:24;;;;;;;5.63;3.03;;;;;;;8.02;67.70;100273.19;5052840;28;20060;-58
2023/05/01 03:03:51;;;;;;;5.13;3.30;;;;;;;8.00;66.97;100279.06;5053080;28;20055;-58
2023/05/01 03:06:19;;;;;;;6.22;3.40;;;;;;;8.02;66.94;100275.97;5052396;28;20052;-58
2023/05/01 03:08:47;;;;;;;3.83;2.67;;;;;;;8.05;66.84;100276.19;5052411;28;20045;-58
2023/05/01 03:11:16;;;;;;;6.90;3.83;;;;;;;8.00;66.89;100273.50;5052290;28;20053;-58
2023/05/01 03:13:43;;;;;;;6.43;3.15;;;;;;;7.99;67.92;100263.53;5046297;28;20060;-58
2023/05/01 03:16:10;;;;;;;5.88;3.53;;;;;;;8.00;66.93;100254.09;5052327;28;20136;-57
2023/05/01 03:18:38;;;;;;;6.53;3.53;;;;;;;8.05;66.89;100258.72;5052420;28;20482;-58
2023/05/01 03:21:05;;;;;;;4.45;3.13;;;;;;;8.03;68.11;100258.22;5052306;28;20068;-58
2023/05/01 03:23:32;;;;;;;6.38;3.67;;;;;;;8.03;67.31;100255.44;5052242;28;20414;-59
2023/05/01 03:25:59;;;;;;;5.72;3.60;;;;;;;8.04;68.50;100251.53;5052190;28;20064;-59
2023/05/01 03:28:28;;;;;;;6.25;3.50;;;;;;;8.08;67.88;100249.78;5048314;28;20049;-58
2023/05/01 03:30:56;;;;;;;4.93;3.85;;;;;;;8.06;67.26;100250.13;5052540;28;20057;-59
2023/05/01 03:33:23;;;;;;;5.10;3.47;;;;;;;8.08;68.43;100250.63;5052550;28;20052;-59
2023/05/01 03:36:00;;;;;;;7.18;3.50;;;;;;;8.08;67.27;100241.47;5052591;28;20408;-59
2023/05/01 03:38:27;;;;;;;6.03;3.80;;;;;;;8.06;67.60;100240.94;5052194;28;20056;-58
2023/05/01 03:40:54;;;;;;;5.55;3.20;;;;;;;8.14;67.94;100240.25;5052116;28;20053;-57
2023/05/01 03:43:22;;;;;;;4.45;3.53;;;;;;;8.14;68.19;100232.75;5042429;28;20049;-58
2023/05/01 03:45:51;;;;;;;5.25;3.42;;;;;;;8.14;68.13;100235.53;5047170;28;20057;-58
2023/05/01 03:48:19;;;;;;;6.90;3.38;;;;;;;8.14;67.87;100229.97;5052423;28;20406;-58
2023/05/01 03:50:46;;;;;;;7.47;4.07;;;;;;;8.17;68.47;100228.56;5053607;28;20171;-58
2023/05/01 03:53:14;;;;;;;4.43;3.58;;;;;;;8.17;67.59;100223.00;5056189;28;20049;-58
2023/05/01 03:55:41;;;;;;;4.72;3.40;;;;;;;8.18;68.50;100232.16;5056013;28;20056;-59
2023/05/01 03:58:09;;;;;;;5.88;3.15;;;;;;;8.26;67.52;100226.72;5052361;28;20048;-59
2023/05/01 04:00:37;;;;;;;6.93;3.20;;;;;;;8.23;67.07;100227.34;5055724;28;20049;-59
2023/05/01 04:03:05;;;;;;;5.03;3.38;;;;;;;8.27;68.14;100222.00;5056265;28;20053;-59
2023/05/01 04:05:33;;;;;;;5.68;3.20;;;;;;;8.26;67.86;100221.19;5055923;28;20053;-58
2023/05/01 04:08:00;;;;;;;5.38;3.80;;;;;;;8.31;67.85;100221.06;5056034;28;20378;-59
2023/05/01 04:10:27;;;;;;;6.30;3.60;;;;;;;8.34;67.83;100220.47;5055738;28;20053;-59
2023/05/01 04:12:55;;;;;;;5.70;3.83;;;;;;;8.36;68.09;100219.34;5051064;28;20061;-58
2023/05/01 04:15:22;;;;;;;6.60;3.80;;;;;;;8.40;66.84;100215.66;5054141;28;20064;-59
2023/05/01 04:17:49;;;;;;;5.00;3.53;;;;;;;8.42;66.98;100216.22;5055639;28;20059;-59
2023/05/01 04:20:19;;;;;;;5.03;3.10;;;;;;;8.46;67.80;100225.56;5055909;28;20099;-59
2023/05/01 04:22:47;;;;;;;7.40;3.38;;;;;;;8.50;66.33;100211.88;5055769;28;20471;-59
2023/05/01 04:25:14;;;;;;;5.55;3.97;;;;;;;8.54;67.81;100222.06;5055633;28;20482;-59
2023/05/01 04:27:41;;;;;;;4.15;3.03;;;;;;;8.60;66.33;100214.47;5051945;28;20050;-59
2023/05/01 04:30:10;;;;;;;5.57;3.30;;;;;;;8.63;66.55;100205.53;5055123;28;20053;-59
2023/05/01 04:32:37;;;;;;;6.80;3.10;;;;;;;8.71;65.78;100209.53;5055576;28;20049;-59
2023/05/01 04:35:05;;;;;;;4.15;3.33;;;;;;;8.74;66.46;100204.19;5055296;28;20053;-59
2023/05/01 04:37:34;;;;;;;6.15;3.70;;;;;;;8.81;65.75;100203.78;5055471;28;20053;-59
2023/05/01 04:40:01;;;;;;;4.45;3.55;;;;;;;8.87;65.68;100202.53;5054917;28;20060;-59
2023/05/01 04:42:32;;;;;;;4.15;3.15;;;;;;;8.91;66.08;100202.75;5051598;28;20056;-59
2023/05/01 04:45:02;;;;;;;6.95;3.67;;;;;;;8.93;65.76;100200.47;5035120;28;20052;-59
2023/05/01 04:47:30;;;;;;;6.15;3.80;;;;;;;9.02;65.35;100203.34;5035313;28;20064;-59
2023/05/01 04:49:57;;;;;;;5.15;3.30;;;;;;;9.09;65.24;100200.97;5035113;28;20096;-59
2023/05/01 04:52:24;;;;;;;5.03;3.20;;;;;;;9.10;66.44;100200.66;5034788;28;20065;-59
2023/05/01 04:54:53;;;;;;;3.97;3.15;;;;;;;9.21;66.25;100204.03;5034796;28;20083;-59
2023/05/01 04:57:20;;;;;;;4.30;3.35;;;;;;;9.30;65.70;100199.41;5036119;28;20075;-59
2023/05/01 04:59:47;;;;;;;4.57;3.78;;;;;;;9.35;65.80;100202.03;5048042;28;20053;-59
2023/05/01 05:02:15;;;;;;;7.13;3.40;;;;;;;9.44;65.80;100199.34;5054594;28;20151;-59
2023/05/01 05:04:42;;;;;;;4.55;3.55;;;;;;;9.56;65.82;100198.81;5054998;28;20053;-59
2023/05/01 05:07:09;;;;;;;5.72;4.15;;;;;;;9.63;64.52;100196.38;5054997;28;20057;-59
2023/05/01 05:09:36;;;;;;;5.05;3.28;;;;;;;9.79;64.55;100196.03;5054482;28;20068;-59
2023/05/01 05:12:05;;;;;;;7.80;3.80;;;;;;;9.84;64.26;100198.69;5053765;28;20064;-59
2023/05/01 05:14:33;;;;;;;6.70;3.97;;;;;;;9.96;63.94;100193.38;5036039;28;20057;-59
2023/05/01 05:17:00;;;;;;;6.20;3.95;;;;;;;10.01;63.29;100196.00;5034704;28;20053;-59
2023/05/01 05:19:27;;;;;;;6.32;3.97;;;;;;;10.11;63.35;100195.75;5034448;28;20060;-59
2023/05/01 05:21:54;;;;;;;7.03;4.13;;;;;;;10.26;63.02;100194.53;5034620;28;20493;-59
2023/05/01 05:24:21;;;;;;;7.40;4.30;;;;;;;10.36;62.31;100196.25;5034256;28;20061;-59
2023/05/01 05:26:49;;;;;;;4.90;3.90;;;;;;;10.50;62.78;100196.97;5034668;28;20053;-59
2023/05/01 05:29:18;;;;;;;6.70;4.53;;;;;;;10.62;62.15;100192.75;5047146;28;20053;-59
2023/05/01 05:31:46;;;;;;;8.80;5.07;;;;;;;10.75;62.28;100195.44;5052615;28;20406;-59
2023/05/01 05:34:13;;;;;;;8.05;5.78;;;;;;;10.87;62.12;100189.22;5054311;28;20060;-59
2023/05/01 05:36:40;;;;;;;7.63;5.30;;;;;;;11.07;61.10;100192.59;5054262;28;20053;-59
2023/05/01 05:39:07;;;;;;;6.72;5.35;;;;;;;11.21;60.84;100196.03;5053726;28;20049;-59
2023/05/01 05:41:35;;;;;;;5.68;4.25;;;;;;;11.33;60.46;100185.06;5053996;28;20482;-59
2023/05/01 05:44:02;;;;;;;7.55;5.15;;;;;;;11.55;60.04;100191.66;5050726;28;20048;-59
2023/05/01 05:46:30;;;;;;;5.72;4.50;;;;;;;11.73;59.41;100187.69;5053699;28;20063;-59
2023/05/01 05:48:58;;;;;;;5.57;4.57;;;;;;;11.94;58.93;100189.84;5054090;28;20057;-59
2023/05/01 05:51:25;;;;;;;5.93;4.32;;;;;;;12.15;58.22;100187.16;5047139;28;20505;-59
2023/05/01 05:53:52;;;;;;;6.63;4.47;;;;;;;12.37;57.70;100186.94;5047348;28;20057;-59
2023/05/01 05:56:19;;;;;;;6.47;4.93;;;;;;;12.51;56.95;100183.13;5053645;28;20049;-59
2023/05/01 05:58:47;;;;;;;6.13;5.15;;;;;;;12.73;56.42;100182.06;5041647;28;20060;-60
2023/05/01 06:01:15;;;;;;;10.95;5.32;;;;;;;12.88;55.83;100172.28;5039627;28;20056;-60
2023/05/01 06:03:43;;;;;;;8.88;5.32;;;;;;;13.03;55.57;100180.06;5038820;28;20050;-60
2023/05/01 06:06:10;;;;;;;8.32;4.90;;;;;;;13.19;55.68;100178.31;5053610;28;20072;-60
2023/05/01 06:08:38;;;;;;;7.10;5.25;;;;;;;13.29;55.41;100174.34;5047985;28;20049;-60
2023/05/01 06:11:06;;;;;;;6.93;5.22;;;;;;;13.48;54.78;100173.88;5053203;28;20049;-60
2023/05/01 06:13:33;;;;;;;6.00;4.88;;;;;;;13.65;55.26;100169.28;5041061;28;20068;-60
2023/05/01 06:16:00;;;;;;;7.10;4.90;;;;;;;13.81;53.49;100173.88;5032959;28;20049;-59
2023/05/01 06:18:29;;;;;;;7.03;5.13;;;;;;;13.97;53.32;100170.47;5038099;28;20076;-59
2023/05/01 06:20:58;;;;;;;6.75;5.05;;;;;;;14.09;53.78;100173.31;5035673;28;20058;-59
2023/05/01 06:23:25;;;;;;;;;;;;;;;14.20;53.66;100171.69;5041947;28;20061;-60
2023/05/01 06:25:53;;;;;;;6.20;4.57;;;;;;;14.35;53.33;100177.81;5050811;28;19920;-58
2023/05/01 06:28:20;;;;;;;6.00;4.47;;;;;;;14.51;52.19;100173.16;5040164;28;20053;-60
2023/05/01 06:30:47;;;;;;;7.30;4.85;;;;;;;14.71;53.12;100165.84;5038875;28;20056;-60
2023/05/01 06:33:15;;;;;;;7.50;5.20;;;;;;;14.87;51.72;100165.97;5053432;28;20048;-60
2023/05/01 06:35:42;;;;;;;6.25;4.55;;;;;;;15.07;52.44;100171.78;5045561;28;20513;-60
2023/05/01 06:38:11;;;;;;;8.15;4.97;;;;;;;15.18;51.87;100170.13;5033390;28;20053;-60
2023/05/01 06:40:39;;;;;;;5.88;4.63;;;;;;;15.36;52.60;100165.06;5038182;28;20044;-60
2023/05/01 06:43:06;;;;;;;5.88;4.72;;;;;;;15.55;52.16;100158.81;5038852;28;20076;-59
2023/05/01 06:45:33;;;;;;;6.75;4.45;;;;;;;15.74;51.42;100161.81;5042455;28;20053;-60
2023/05/01 06:48:01;;;;;;;6.85;5.07;;;;;;;15.86;51.57;100158.16;5041619;28;20060;-60
2023/05/01 06:50:28;;;;;;;7.20;4.88;;;;;;;15.96;51.32;100166.06;5041537;28;20474;-60
2023/05/01 06:52:55;;;;;;;8.05;4.57;;;;;;;16.06;50.47;100158.28;5052406;28;20059;-59
2023/05/01 06:55:24;;;;;;;9.20;4.60;;;;;;;16.19;51.41;100157.03;5041868;28;20065;-59
2023/05/01 06:57:51;;;;;;;6.13;4.53;;;;;;;16.35;50.32;100157.06;5041136;28;20056;-59
2023/05/01 07:00:19;;;;;;;6.13;4.78;;;;;;;16.55;50.40;100160.81;5047447;28;20045;-59
2023/05/01 07:02:46;;;;;;;6.35;4.55;;;;;;;16.67;50.84;100154.25;5033018;28;20409;-59
2023/05/01 07:05:13;;;;;;;6.43;4.95;;;;;;;16.82;50.66;100156.28;5051225;28;20052;-61
2023/05/01 07:07:41;;;;;;;6.38;4.60;;;;;;;16.81;50.77;100157.47;5032857;28;20049;-58
2023/05/01 07:10:08;;;;;;;6.00;4.75;;;;;;;16.99;49.84;100153.09;5047756;28;20056;-59
2023/05/01 07:12:37;;;;;;;7.45;4.28;;;;;;;17.15;49.96;100155.03;5043501;28;20076;-58
2023/05/01 07:15:05;;;;;;;7.60;5.55;;;;;;;17.17;49.66;100149.84;5044898;28;20049;-58
2023/05/01 07:17:33;;;;;;;8.38;5.70;;;;;;;17.48;48.61;100150.94;5036135;28;20486;-59
2023/05/01 07:20:00;;;;;;;6.75;5.30;;;;;;;17.69;47.87;100142.94;5037832;28;20053;-58
2023/05/01 07:22:28;;;;;;;4.05;3.20;;;;;;;18.12;46.66;100135.38;5037614;28;20522;-38
2023/05/01 07:24:55;;;;;;;4.53;3.30;;;;;;;18.44;46.33;100144.41;5039522;28;20057;-38
2023/05/01 07:27:23;;;;;;;4.55;2.80;;;;;;;18.71;45.77;100141.66;5036040;28;20053;-38
2023/05/01 07:29:52;;;;;;;4.72;3.70;;;;;;;18.69;45.41;100143.19;5042378;28;20052;-38
2023/05/01 07:32:19;;;;;;;5.07;3.07;;;;;;;18.73;45.66;100141.25;5052123;28;20060;-38
2023/05/01 07:34:46;;;;;;;6.20;2.90;;;;;;;18.86;45.04;100140.69;5050965;28;20487;-38
2023/05/01 07:37:14;;;;;;;4.97;3.45;;;;;;;18.78;43.66;100138.94;5049923;28;20080;-60
2023/05/01 07:39:41;;;;;;;4.55;3.10;;;;;;;18.76;43.86;100140.50;5046481;28;20055;-61
2023/05/01 07:42:08;;;;;;;4.20;2.65;;;;;;;18.84;44.50;100133.81;5053121;28;20056;-61
2023/05/01 07:44:35;;;;;;;4.82;2.63;;;;;;;18.90;42.84;100140.75;5043008;28;20052;-61
2023/05/01 07:47:05;;;;;;;2.45;2.15;;;;;;;19.03;42.68;100139.34;5044346;28;20053;-62
2023/05/01 07:49:36;;;;;;;3.30;2.58;;;;;;;19.12;42.71;100129.78;5040683;28;20052;-58
2023/05/01 07:52:04;;;;;;;4.38;2.42;;;;;;;19.20;42.66;100132.34;5052175;28;20686;-57
2023/05/01 07:54:31;;;;;;;3.65;2.45;;;;;;;19.44;41.79;100130.22;5052385;28;20049;-57
2023/05/01 07:56:58;;;;;;;3.53;2.40;;;;;;;19.66;41.24;100131.34;5050900;28;20055;-56
2023/05/01 07:59:25;;;;;;;5.25;2.88;;;;;;;19.83;41.24;100132.78;5043703;28;20434;-57
2023/05/01 08:01:53;;;;;;;5.05;2.60;;;;;;;19.92;41.23;100129.63;5049280;28;20072;-57
2023/05/01 08:04:21;;;;;;;3.30;2.10;;;;;;;20.07;41.42;100131.41;5043014;28;20049;-57
2023/05/01 08:06:50;;;;;;;3.63;2.40;;;;;;;20.21;39.98;100131.56;5045956;28;20049;-57
2023/05/01 08:09:17;;;;;;;3.78;2.20;;;;;;;20.36;40.12;100131.72;5040667;28;20064;-56
2023/05/01 08:11:44;;;;;;;3.08;2.10;;;;;;;20.50;39.92;100128.22;5037670;28;20049;-56
2023/05/01 08:14:12;;;;;;;3.90;2.10;;;;;;;20.61;39.39;100124.28;5039270;28;20048;-40
2023/05/01 08:16:39;;;;;;;2.63;1.80;;;;;;;20.78;39.41;100116.31;5052930;28;20127;-41
2023/05/01 08:19:06;;;;;;;3.20;1.90;;;;;;;21.14;37.93;100133.56;5054668;28;20053;-57
2023/05/01 08:21:35;;;;;;;3.25;2.00;;;;;;;21.20;38.23;100120.66;5052623;28;20397;-57
2023/05/01 08:24:02;;;;;;;4.18;2.55;;;;;;;21.48;37.15;100123.69;5049750;28;20045;-58
2023/05/01 08:26:30;;;;;;;3.30;1.80;;;;;;;21.77;36.20;100118.13;5052861;28;20049;-58
2023/05/01 08:28:57;;;;;;;3.60;2.00;;;;;;;21.81;35.78;100116.09;5047523;28;20500;-57
2023/05/01 08:31:25;;;;;;;4.78;2.15;;;;;;;22.02;35.83;100114.53;5045761;28;20048;-57
2023/05/01 08:33:52;;;;;;;3.67;1.60;;;;;;;22.35;35.11;100106.94;5045928;28;20059;-58
2023/05/01 08:36:19;;;;;;;3.83;2.00;;;;;;;22.72;35.07;100106.56;5052271;28;20049;-58
2023/05/01 08:38:48;;;;;;;5.40;1.95;;;;;;;23.50;33.02;100102.72;5038520;28;20049;-57
2023/05/01 08:41:16;;;;;;;3.35;1.60;;;;;;;24.34;32.39;100111.63;5051459;28;20376;-59
2023/05/01 08:43:44;;;;;;;2.40;1.88;;;;;;;24.47;31.78;100099.34;5050417;28;20049;-58
2023/05/01 08:46:15;;;;;;;3.53;1.80;;;;;;;24.48;31.60;100100.97;5049882;28;20049;-59
2023/05/01 08:48:44;;;;;;;3.08;1.77;;;;;;;24.84;31.06;100102.72;5053434;28;20057;-62
2023/05/01 08:51:15;;;;;;;4.15;1.90;;;;;;;24.69;31.85;100099.19;5045759;28;20047;-61
2023/05/01 08:53:43;;;;;;;3.03;2.30;;;;;;;24.99;31.31;100100.53;5042883;28;20052;-58
2023/05/01 08:56:14;;;;;;;2.72;2.03;;;;;;;25.47;30.38;100106.16;5039343;28;20054;-58
2023/05/01 08:58:44;;;;;;;4.30;2.30;;;;;;;25.76;29.30;100097.22;5041299;28;20055;-58
2023/05/01 09:01:14;;;;;;;2.97;1.88;;;;;;;25.94;28.84;100096.22;5050503;28;20048;-58
2023/05/01 09:03:43;;;;;;;3.47;1.63;;;;;;;25.96;29.95;100096.59;5050700;28;20053;-59
2023/05/01 09:06:10;;;;;;;;;;;;;;;26.18;29.20;100094.22;5051832;28;20049;-58
2023/05/01 09:08:38;;;;;;;3.97;1.85;;;;;;;26.56;28.96;100091.16;5054307;28;20003;-58
2023/05/01 09:11:06;;;;;;;3.42;1.90;;;;;;;26.77;28.92;100085.09;5042821;28;20406;-58
2023/05/01 09:13:34;;;;;;;2.63;1.85;;;;;;;27.14;28.07;100083.19;5045152;28;20060;-58
2023/05/01 09:16:02;;;;;;;2.55;1.85;;;;;;;27.35;27.65;100084.84;5046265;28;20053;-58
2023/05/01 09:18:30;;;;;;;3.17;1.55;;;;;;;27.71;26.95;100084.09;5041426;28;20049;-57
2023/05/01 09:20:58;;;;;;;4.22;1.90;;;;;;;28.06;27.03;100081.72;5040652;28;20056;-58
2023/05/01 09:23:25;;;;;;;4.22;2.05;;;;;;;28.42;26.90;100083.75;5036872;28;20060;-58
2023/05/01 09:25:53;;;;;;;3.13;1.80;;;;;;;29.11;25.40;100072.97;5049098;28;20059;-58
2023/05/01 09:28:44;;;;;;;3.07;1.87;;;;;;;30.70;23.46;100069.72;5045634;28;20049;-58
2023/05/01 09:31:21;;;;;;;4.53;1.90;;;;;;;32.46;22.89;100068.84;5046502;28;20053;-58
2023/05/01 09:33:53;;;;;;;2.55;1.58;;;;;;;33.86;21.39;100071.31;5032913;28;20053;-59
2023/05/01 09:36:22;;;;;;;2.95;1.80;;;;;;;35.11;20.13;100075.84;5045373;28;20073;-58
2023/05/01 09:38:50;;;;;;;3.00;1.70;;;;;;;36.08;18.54;100069.75;5045761;28;20045;-58
2023/05/01 09:41:19;;;;;;;4.00;1.83;;;;;;;37.34;18.31;100060.19;5043706;28;20056;-59
2023/05/01 09:43:51;;;;;;;4.00;2.72;;;;;;;38.48;16.88;100062.78;5040803;28;20059;-58
2023/05/01 09:46:19;;;;;;;4.45;1.85;;;;;;;39.42;15.69;100057.94;5051932;28;20060;-59
2023/05/01 09:48:53;;;;;;;3.38;1.67;;;;;;;40.05;15.96;100056.69;5052763;28;20502;-58
2023/05/01 09:51:23;;;;;;;2.45;1.73;;;;;;;40.78;14.97;100056.59;5033735;28;20064;-59
2023/05/01 09:53:51;;;;;;;2.10;1.55;;;;;;;41.23;14.28;100055.59;5032472;28;20064;-59
2023/05/01 09:56:19;;;;;;;3.28;1.88;;;;;;;41.50;14.01;100053.06;5042009;28;20072;-58
2023/05/01 09:58:46;;;;;;;;;;;;;;;39.89;14.72;100058.28;5051368;28;20053;-58
2023/05/01 10:01:15;;;;;;;2.80;1.58;;;;;;;41.24;13.45;100048.41;5045839;28;19928;-58
2023/05/01 10:03:44;;;;;;;2.63;1.50;;;;;;;42.24;13.45;100048.22;5037042;28;20049;-58
2023/05/01 10:06:12;;;;;;;2.20;1.70;;;;;;;41.90;12.44;100042.66;5053424;28;20406;-58
2023/05/01 10:08:47;;;;;;;2.03;1.33;;;;;;;41.66;12.75;100046.28;5038747;28;20065;-59
2023/05/01 10:11:14;;;;;;;2.67;1.60;;;;;;;41.29;12.29;100046.81;5033352;28;20494;-59
2023/05/01 10:13:42;;;;;;;2.23;1.50;;;;;;;40.61;13.01;100047.03;5043959;28;20072;-59
2023/05/01 10:16:28;;;;;;;2.22;1.10;;;;;;;39.87;13.24;100043.44;5052959;28;20475;-59
2023/05/01 10:18:57;;;;;;;1.40;0.95;;;;;;;38.83;13.94;100039.19;5052839;28;20053;-59
2023/05/01 10:21:24;;;;;;;1.67;1.05;;;;;;;36.91;15.11;100051.19;5052623;28;20060;-59
2023/05/01 10:23:52;;;;;;;2.15;1.45;;;;;;;35.84;15.28;100050.38;5052642;28;20053;-59
2023/05/01 10:26:19;;;;;;;2.55;1.50;;;;;;;34.92;16.80;100048.31;5041262;28;20056;-59
2023/05/01 10:28:49;;;;;;;1.95;1.30;;;;;;;33.79;17.26;100048.56;5034373;28;20420;-59
2023/05/01 10:31:16;;;;;;;1.98;1.30;;;;;;;33.02;18.20;100040.91;5032457;28;20049;-58
2023/05/01 10:33:47;;;;;;;2.03;1.10;;;;;;;32.39;18.46;100042.41;5032594;28;20529;-59
2023/05/01 10:36:19;;;;;;;2.08;1.55;;;;;;;31.53;20.48;100046.63;5047981;28;20064;-59
2023/05/01 10:38:47;;;;;;;2.08;1.40;;;;;;;30.89;20.50;100049.78;5047410;28;20064;-59
2023/05/01 10:41:15;;;;;;;2.72;1.55;;;;;;;30.39;21.45;100048.63;5040911;28;20064;-58
2023/05/01 10:43:43;;;;;;;3.10;1.23;;;;;;;29.73;21.91;100049.88;5045905;28;20056;-58
2023/05/01 10:46:29;;;;;;;3.05;1.27;;;;;;;29.63;21.41;100044.41;5050097;28;20476;-58
2023/05/01 10:48:58;;;;;;;2.40;1.15;;;;;;;29.11;22.41;100052.88;5033229;28;20053;-58
2023/05/01 10:51:27;;;;;;;2.05;1.30;;;;;;;29.02;22.50;100044.09;5031775;28;20053;-56
2023/05/01 10:54:23;;;;;;;1.95;1.30;;;;;;;29.53;22.62;100046.34;5032369;28;20049;-59
2023/05/01 10:56:51;;;;;;;1.65;1.13;;;;;;;29.26;21.99;100041.81;5036378;28;20067;-59
2023/05/01 10:59:18;;;;;;;2.47;0.98;;;;;;;29.43;21.68;100031.06;5045830;28;20048;-58
2023/05/01 11:01:47;;;;;;;1.70;1.20;;;;;;;31.02;20.07;100036.19;5048574;28;20061;-59
2023/05/01 11:04:49;;;;;;;2.20;1.35;;;;;;;31.26;21.31;100038.59;5037350;28;20049;-59
2023/05/01 11:07:19;;;;;;;4.85;1.30;;;;;;;31.35;21.08;100033.72;5036284;28;20057;-58
2023/05/01 11:09:50;;;;;;;2.22;1.20;;;;;;;31.89;21.14;100033.72;5038141;28;20067;-59
2023/05/01 11:12:47;;;;;;;2.45;1.20;;;;;;;32.22;20.94;100027.47;5046883;28;20053;-58
2023/05/01 11:15:26;;;;;;;7.47;1.50;;;;;;;31.27;21.43;100022.94;5035249;28;20060;-58
2023/05/01 11:17:54;;;;;;;;;;;;;;;30.22;22.10;100031.50;5031331;28;20049;-59
2023/05/01 11:20:46;;;;;;;2.72;1.05;;;;;;;29.32;22.65;100030.59;5032080;28;19928;-58
2023/05/01 11:23:22;;;;;;;2.20;1.40;;;;;;;28.74;24.01;100035.00;5027318;28;20049;-59
2023/05/01 11:25:50;;;;;;;2.22;1.20;;;;;;;28.17;24.71;100035.66;5030489;28;20060;-58
2023/05/01 11:28:24;;;;;;;1.97;1.13;;;;;;;27.75;25.50;100036.19;5036704;28;20381;-58
2023/05/01 11:30:51;;;;;;;1.63;1.00;;;;;;;27.27;26.29;100027.00;5036204;28;20079;-58
2023/05/01 11:33:24;;;;;;;1.92;1.20;;;;;;;26.78;29.86;100034.50;5036564;28;20046;-37
2023/05/01 11:35:59;;;;;;;2.05;1.27;;;;;;;26.42;32.39;100044.47;5029750;28;20508;-37
2023/05/01 11:38:28;;;;;;;4.00;1.40;;;;;;;26.09;32.19;100037.66;5039855;28;20053;-37
2023/05/01 11:41:02;;;;;;;1.80;1.30;;;;;;;25.85;28.77;100040.44;5029855;28;20041;-37